createdAt,value
2018-09-29T00:01:32.710Z,2.60
2018-09-29T00:04:02.855Z,2.57
2018-09-29T00:06:34.330Z,2.67
2018-09-29T00:09:05.405Z,2.53
2018-09-29T00:11:35.637Z,2.50
2018-09-29T00:14:05.777Z,3.63
2018-09-29T00:16:36.079Z,3.33
2018-09-29T00:19:06.759Z,3.47
2018-09-29T00:21:38.105Z,2.33
2018-09-29T00:24:08.206Z,2.60
2018-09-29T00:26:38.580Z,2.50
2018-09-29T00:29:08.946Z,2.40
2018-09-29T00:31:39.295Z,2.17
2018-09-29T00:34:09.626Z,2.70
2018-09-29T00:36:40.808Z,2.43
2018-09-29T00:39:11.932Z,2.70
2018-09-29T00:41:41.679Z,2.80
2018-09-29T00:44:11.349Z,2.77
2018-09-29T00:46:41.063Z,2.70
2018-09-29T00:49:10.780Z,2.63
2018-09-29T00:51:40.473Z,2.43
2018-09-29T00:54:10.617Z,2.20
2018-09-29T00:56:41.167Z,2.63
2018-09-29T00:59:11.084Z,2.80
2018-09-29T01:01:42.335Z,2.63
2018-09-29T01:04:12.612Z,2.70
2018-09-29T01:06:42.910Z,2.80
2018-09-29T01:09:13.182Z,2.60
2018-09-29T01:11:43.432Z,2.50
2018-09-29T01:14:14.003Z,3.00
2018-09-29T01:16:44.251Z,2.93
2018-09-29T01:19:14.547Z,3.40
2018-09-29T01:21:44.776Z,3.17
2018-09-29T01:24:14.987Z,3.20
2018-09-29T01:26:45.230Z,3.13
2018-09-29T01:29:18.602Z,3.20
2018-09-29T01:31:48.570Z,3.07
2018-09-29T01:34:18.557Z,3.30
2018-09-29T01:36:48.783Z,3.80
2018-09-29T01:39:18.888Z,3.13
2018-09-29T01:41:49.872Z,3.77
2018-09-29T01:44:20.067Z,3.13
2018-09-29T01:46:51.147Z,3.50
2018-09-29T01:49:21.326Z,3.50
2018-09-29T01:51:53.225Z,3.50
2018-09-29T01:54:23.437Z,3.93
2018-09-29T01:56:53.401Z,3.80
2018-09-29T01:59:23.925Z,3.30
2018-09-29T02:01:54.920Z,3.73
2018-09-29T02:04:25.564Z,3.53
2018-09-29T02:06:55.964Z,3.63
2018-09-29T02:09:26.199Z,3.17
2018-09-29T02:11:57.264Z,4.27
2018-09-29T02:14:27.520Z,3.20
2018-09-29T02:16:57.783Z,3.40
2018-09-29T02:19:27.764Z,3.27
2018-09-29T02:21:57.891Z,3.57
2018-09-29T02:24:28.073Z,3.43
2018-09-29T02:26:58.244Z,4.17
2018-09-29T02:29:29.190Z,3.10
2018-09-29T02:31:59.547Z,3.80
2018-09-29T02:34:29.765Z,4.57
2018-09-29T02:36:59.837Z,4.13
2018-09-29T02:39:30.623Z,3.37
2018-09-29T02:42:00.889Z,3.70
2018-09-29T02:44:31.133Z,3.73
2018-09-29T02:47:01.286Z,3.50
2018-09-29T02:49:31.570Z,3.23
2018-09-29T02:52:01.798Z,3.70
2018-09-29T02:54:31.941Z,3.40
2018-09-29T02:57:03.097Z,3.53
2018-09-29T02:59:33.396Z,2.90
2018-09-29T03:02:04.432Z,3.30
2018-09-29T03:04:34.711Z,3.40
2018-09-29T03:07:04.930Z,2.87
2018-09-29T03:09:35.056Z,3.10
2018-09-29T03:12:05.032Z,3.40
2018-09-29T03:14:35.075Z,3.37
2018-09-29T03:17:05.348Z,3.23
2018-09-29T03:19:35.490Z,3.70
2018-09-29T03:22:06.575Z,3.97
2018-09-29T03:24:36.802Z,3.30
2018-09-29T03:27:06.995Z,3.47
2018-09-29T03:29:38.127Z,3.70
2018-09-29T03:32:08.492Z,4.00
2018-09-29T03:34:38.719Z,3.53
2018-09-29T03:37:08.562Z,3.43
2018-09-29T03:39:38.224Z,5.30
2018-09-29T03:42:07.942Z,3.70
2018-09-29T03:44:37.881Z,3.87
2018-09-29T03:47:08.543Z,3.80
2018-09-29T03:49:38.789Z,2.90
2018-09-29T03:52:09.115Z,3.57
2018-09-29T03:54:39.209Z,3.87
2018-09-29T03:57:09.441Z,5.53
2018-09-29T03:59:39.612Z,9.27
2018-09-29T04:02:10.003Z,8.80
2018-09-29T04:04:40.613Z,6.37
2018-09-29T04:07:11.918Z,6.43
2018-09-29T04:09:42.028Z,6.20
2018-09-29T04:12:12.061Z,6.20
2018-09-29T04:14:42.350Z,7.30
2018-09-29T04:17:13.205Z,5.67
2018-09-29T04:19:43.589Z,5.70
2018-09-29T04:22:13.813Z,7.53
2018-09-29T04:24:44.228Z,8.83
2018-09-29T04:27:15.303Z,7.97
2018-09-29T04:29:45.422Z,6.60
2018-09-29T04:32:16.361Z,7.20
2018-09-29T04:34:46.678Z,8.00
2018-09-29T04:37:17.629Z,9.50
2018-09-29T04:39:47.460Z,10.47
2018-09-29T04:42:17.745Z,10.73
2018-09-29T04:44:47.946Z,9.70
2018-09-29T04:47:17.752Z,9.30
2018-09-29T04:49:47.448Z,10.00
2018-09-29T04:52:17.125Z,9.33
2018-09-29T04:54:46.941Z,8.63
2018-09-29T04:57:16.690Z,8.13
2018-09-29T04:59:46.391Z,10.13
2018-09-29T05:02:16.306Z,11.27
2018-09-29T05:04:47.064Z,12.20
2018-09-29T05:07:18.353Z,13.20
2018-09-29T05:09:48.651Z,12.90
2018-09-29T05:12:18.700Z,13.07
2018-09-29T05:14:48.744Z,12.10
2018-09-29T05:17:19.031Z,7.90
2018-09-29T05:19:48.954Z,9.30
2018-09-29T05:22:20.028Z,9.80
2018-09-29T05:24:50.248Z,12.57
2018-09-29T05:27:20.483Z,10.73
2018-09-29T05:29:50.580Z,6.13
2018-09-29T05:32:21.024Z,5.47
2018-09-29T05:34:50.895Z,4.30
2018-09-29T05:37:20.973Z,3.50
2018-09-29T05:39:51.055Z,4.00
2018-09-29T05:42:21.553Z,4.03
2018-09-29T05:44:51.583Z,3.80
2018-09-29T05:47:24.864Z,4.50
2018-09-29T05:49:55.684Z,4.37
2018-09-29T05:52:26.449Z,4.40
2018-09-29T05:54:56.334Z,4.03
2018-09-29T05:57:26.299Z,4.43
2018-09-29T05:59:56.472Z,5.70
2018-09-29T06:02:31.697Z,6.10
2018-09-29T06:05:04.603Z,6.20
2018-09-29T06:07:36.282Z,5.20
2018-09-29T06:10:08.717Z,5.73
2018-09-29T06:12:38.896Z,5.33
2018-09-29T06:15:09.918Z,4.83
2018-09-29T06:17:40.677Z,4.83
2018-09-29T06:20:11.337Z,4.57
2018-09-29T06:22:42.047Z,4.00
2018-09-29T06:25:12.423Z,4.20
2018-09-29T06:27:42.032Z,4.80
2018-09-29T06:30:11.932Z,4.20
2018-09-29T06:32:41.970Z,4.47
2018-09-29T06:35:11.866Z,4.03
2018-09-29T06:37:41.941Z,4.40
2018-09-29T06:40:11.866Z,4.10
2018-09-29T06:42:41.738Z,4.80
2018-09-29T06:45:11.637Z,3.70
2018-09-29T06:47:42.224Z,4.20
2018-09-29T06:50:12.191Z,3.80
2018-09-29T06:52:42.376Z,3.67
2018-09-29T06:55:12.745Z,3.30
2018-09-29T06:57:43.101Z,3.50
2018-09-29T07:00:14.357Z,3.90
2018-09-29T07:02:44.658Z,3.60
2018-09-29T07:05:14.960Z,4.17
2018-09-29T07:07:46.253Z,3.73
2018-09-29T07:10:16.621Z,3.93
2018-09-29T07:12:47.204Z,3.87
2018-09-29T07:15:19.933Z,4.03
2018-09-29T07:17:50.718Z,3.60
2018-09-29T07:20:20.800Z,3.43
2018-09-29T07:22:51.074Z,3.57
2018-09-29T07:25:21.313Z,3.30
2018-09-29T07:27:52.252Z,3.33
2018-09-29T07:30:22.253Z,3.50
2018-09-29T07:32:53.589Z,3.50
2018-09-29T07:35:23.960Z,3.50
2018-09-29T07:37:54.307Z,3.30
2018-09-29T07:40:24.634Z,3.90
2018-09-29T07:42:56.645Z,3.43
2018-09-29T07:45:26.930Z,4.30
2018-09-29T07:47:57.080Z,3.60
2018-09-29T07:50:27.263Z,3.17
2018-09-29T07:52:57.598Z,4.20
2018-09-29T07:55:27.841Z,4.00
2018-09-29T07:57:58.608Z,3.50
2018-09-29T08:00:29.187Z,4.00
2018-09-29T08:02:59.524Z,3.60
2018-09-29T08:05:29.692Z,3.60
2018-09-29T08:08:01.118Z,3.90
2018-09-29T08:10:31.171Z,4.27
2018-09-29T08:13:01.676Z,3.37
2018-09-29T08:15:31.751Z,3.80
2018-09-29T08:18:01.778Z,4.17
2018-09-29T08:20:32.291Z,4.00
2018-09-29T08:23:03.309Z,4.00
2018-09-29T08:25:33.481Z,5.03
2018-09-29T08:28:03.813Z,4.20
2018-09-29T08:30:35.397Z,4.00
2018-09-29T08:33:06.178Z,3.73
2018-09-29T08:35:39.848Z,4.00
2018-09-29T08:38:10.811Z,4.37
2018-09-29T08:40:40.770Z,3.77
2018-09-29T08:43:10.996Z,4.03
2018-09-29T08:45:41.567Z,3.77
2018-09-29T08:48:13.432Z,3.80
2018-09-29T08:50:43.523Z,3.93
2018-09-29T08:53:13.739Z,8.77
2018-09-29T08:55:44.937Z,3.80
2018-09-29T08:58:15.290Z,3.60
2018-09-29T09:00:45.520Z,3.60
2018-09-29T09:03:16.914Z,3.60
2018-09-29T09:05:47.932Z,3.40
2018-09-29T09:08:18.785Z,3.37
2018-09-29T09:10:50.783Z,3.63
2018-09-29T09:13:21.554Z,3.40
2018-09-29T09:15:52.015Z,3.83
2018-09-29T09:18:22.269Z,3.50
2018-09-29T09:20:53.340Z,3.77
2018-09-29T09:23:25.300Z,3.97
2018-09-29T09:25:55.649Z,3.63
2018-09-29T09:28:26.348Z,3.73
2018-09-29T09:30:57.075Z,3.60
2018-09-29T09:33:27.347Z,3.80
2018-09-29T09:35:59.424Z,3.43
2018-09-29T09:38:29.790Z,3.40
2018-09-29T09:41:02.245Z,3.90
2018-09-29T09:43:32.526Z,3.10
2018-09-29T09:46:03.134Z,3.50
2018-09-29T09:48:34.552Z,3.73
2018-09-29T09:51:04.759Z,3.57
2018-09-29T09:53:36.931Z,3.80
2018-09-29T09:56:07.271Z,3.50
2018-09-29T09:58:38.162Z,3.93
2018-09-29T10:01:14.353Z,3.60
2018-09-29T10:03:45.380Z,3.60
2018-09-29T10:06:16.106Z,3.77
2018-09-29T10:08:46.113Z,4.70
2018-09-29T10:11:16.208Z,4.07
2018-09-29T10:13:46.274Z,3.50
2018-09-29T10:16:16.213Z,3.57
2018-09-29T10:18:46.175Z,3.77
2018-09-29T10:21:16.248Z,3.67
2018-09-29T10:23:46.535Z,3.93
2018-09-29T10:26:16.545Z,3.27
2018-09-29T10:28:47.080Z,3.63
2018-09-29T10:31:18.176Z,3.70
2018-09-29T10:33:48.507Z,3.50
2018-09-29T10:36:21.027Z,3.47
2018-09-29T10:38:53.189Z,4.00
2018-09-29T10:41:24.357Z,3.57
2018-09-29T10:43:56.357Z,3.13
2018-09-29T10:46:29.276Z,3.70
2018-09-29T10:49:00.235Z,3.47
2018-09-29T10:51:30.735Z,4.10
2018-09-29T10:54:03.210Z,3.43
2018-09-29T10:56:33.433Z,3.90
2018-09-29T10:59:04.979Z,3.70
2018-09-29T11:01:35.212Z,3.50
2018-09-29T11:04:06.220Z,3.50
2018-09-29T11:06:38.170Z,2.87
2018-09-29T11:09:10.581Z,3.53
2018-09-29T11:11:41.439Z,3.27
2018-09-29T11:14:11.836Z,3.60
2018-09-29T11:16:41.930Z,2.80
2018-09-29T11:19:11.941Z,3.30
2018-09-29T11:21:42.354Z,3.43
2018-09-29T11:24:15.681Z,3.50
2018-09-29T11:26:46.633Z,3.63
2018-09-29T11:29:16.805Z,3.60
2018-09-29T11:31:47.031Z,3.17
2018-09-29T11:34:17.416Z,3.43
2018-09-29T11:36:47.846Z,4.70
2018-09-29T11:39:18.550Z,4.03
2018-09-29T11:41:48.799Z,3.47
2018-09-29T11:44:20.219Z,3.23
2018-09-29T11:46:50.736Z,3.80
2018-09-29T11:49:21.572Z,3.20
2018-09-29T11:51:51.696Z,3.30
2018-09-29T11:54:24.031Z,3.03
2018-09-29T11:56:54.583Z,3.70
2018-09-29T11:59:24.976Z,3.30
2018-09-29T12:01:56.237Z,3.70
2018-09-29T12:04:26.307Z,2.90
2018-09-29T12:06:56.504Z,3.93
2018-09-29T12:09:26.679Z,3.27
2018-09-29T12:11:56.501Z,4.87
2018-09-29T12:14:26.203Z,4.40
2018-09-29T12:16:55.930Z,5.50
2018-09-29T12:19:25.693Z,3.90
2018-09-29T12:21:57.899Z,3.70
2018-09-29T12:24:29.144Z,3.80
2018-09-29T12:26:58.962Z,4.17
2018-09-29T12:29:28.730Z,3.33
2018-09-29T12:31:58.545Z,3.43
2018-09-29T12:34:29.108Z,3.80
2018-09-29T12:36:58.956Z,4.17
2018-09-29T12:39:28.515Z,4.63
2018-09-29T12:41:58.209Z,6.30
2018-09-29T12:44:29.001Z,4.57
2018-09-29T12:46:58.809Z,3.70
2018-09-29T12:49:28.587Z,3.90
2018-09-29T12:51:58.302Z,4.10
2018-09-29T12:54:28.748Z,4.13
2018-09-29T12:56:58.523Z,4.80
2018-09-29T12:59:28.214Z,4.10
2018-09-29T13:01:57.909Z,3.83
2018-09-29T13:04:28.316Z,4.20
2018-09-29T13:06:58.047Z,4.07
2018-09-29T13:09:27.779Z,4.77
2018-09-29T13:11:57.525Z,10.00
2018-09-29T13:14:27.233Z,6.30
2018-09-29T13:16:57.031Z,3.63
2018-09-29T13:19:26.640Z,7.30
2018-09-29T13:21:56.474Z,4.20
2018-09-29T13:24:26.280Z,4.50
2018-09-29T13:26:55.985Z,3.90
2018-09-29T13:29:25.697Z,5.20
2018-09-29T13:31:55.450Z,5.07
2018-09-29T13:34:25.085Z,3.93
2018-09-29T13:36:55.019Z,4.10
2018-09-29T13:39:26.431Z,3.77
2018-09-29T13:41:56.108Z,3.90
2018-09-29T13:44:25.904Z,3.50
2018-09-29T13:46:55.693Z,3.60
2018-09-29T13:49:25.544Z,3.93
2018-09-29T13:51:55.334Z,3.80
2018-09-29T13:54:25.018Z,3.60
2018-09-29T13:56:54.763Z,3.97
2018-09-29T13:59:24.470Z,3.10
2018-09-29T14:01:54.193Z,4.50
2018-09-29T14:04:23.919Z,3.90
2018-09-29T14:06:53.658Z,4.00
2018-09-29T14:09:23.514Z,3.40
2018-09-29T14:11:53.189Z,3.43
2018-09-29T14:14:22.883Z,4.00
2018-09-29T14:16:52.508Z,3.80
2018-09-29T14:19:22.292Z,3.70
2018-09-29T14:21:52.089Z,4.20
2018-09-29T14:24:21.840Z,3.80
2018-09-29T14:26:51.544Z,4.40
2018-09-29T14:29:23.635Z,4.13
2018-09-29T14:31:53.333Z,4.80
2018-09-29T14:34:22.994Z,4.50
2018-09-29T14:36:53.025Z,4.67
2018-09-29T14:39:22.729Z,4.20
2018-09-29T14:41:52.474Z,4.53
2018-09-29T14:44:22.204Z,4.30
2018-09-29T14:46:52.028Z,4.90
2018-09-29T14:49:21.697Z,4.77
2018-09-29T14:51:53.020Z,4.80
2018-09-29T14:54:22.836Z,4.83
2018-09-29T14:56:52.679Z,4.57
2018-09-29T14:59:22.366Z,4.80
2018-09-29T15:01:52.728Z,5.70
2018-09-29T15:04:24.309Z,6.43
2018-09-29T15:06:54.118Z,5.20
2018-09-29T15:09:23.827Z,5.27
2018-09-29T15:11:53.607Z,4.10
2018-09-29T15:14:24.898Z,5.30
2018-09-29T15:16:54.621Z,4.87
2018-09-29T15:19:24.396Z,5.47
2018-09-29T15:21:55.542Z,5.27
2018-09-29T15:24:25.544Z,5.20
2018-09-29T15:26:55.342Z,5.30
2018-09-29T15:29:25.013Z,5.20
2018-09-29T15:31:54.757Z,4.63
2018-09-29T15:34:24.546Z,5.20
2018-09-29T15:36:54.293Z,4.80
2018-09-29T15:39:24.145Z,4.83
2018-09-29T15:41:54.054Z,5.53
2018-09-29T15:44:24.695Z,5.23
2018-09-29T15:46:54.385Z,4.73
2018-09-29T15:49:24.290Z,4.80
2018-09-29T15:51:54.181Z,4.87
2018-09-29T15:54:24.071Z,5.10
2018-09-29T15:56:53.850Z,5.00
2018-09-29T15:59:25.333Z,5.20
2018-09-29T16:01:55.074Z,5.50
2018-09-29T16:04:24.778Z,5.40
2018-09-29T16:06:55.451Z,4.90
2018-09-29T16:09:25.233Z,4.87
2018-09-29T16:11:55.232Z,4.93
2018-09-29T16:14:25.098Z,5.50
2018-09-29T16:16:54.883Z,5.00
2018-09-29T16:19:24.678Z,4.93
2018-09-29T16:21:56.115Z,4.73
2018-09-29T16:24:29.166Z,6.20
2018-09-29T16:26:58.865Z,5.80
2018-09-29T16:29:29.394Z,7.30
2018-09-29T16:31:59.189Z,7.70
2018-09-29T16:34:28.894Z,7.73
2018-09-29T16:36:59.624Z,6.10
2018-09-29T16:39:29.348Z,5.93
2018-09-29T16:41:59.555Z,5.43
2018-09-29T16:44:29.275Z,5.77
2018-09-29T16:46:59.170Z,5.93
2018-09-29T16:49:30.063Z,6.47
2018-09-29T16:51:59.787Z,7.13
2018-09-29T16:54:29.560Z,8.33
2018-09-29T16:57:03.197Z,8.70
2018-09-29T16:59:32.969Z,6.67
2018-09-29T17:02:02.787Z,6.47
2018-09-29T17:04:32.577Z,8.57
2018-09-29T17:07:02.322Z,8.20
2018-09-29T17:09:32.068Z,8.53
2018-09-29T17:12:01.979Z,7.93
2018-09-29T17:14:32.666Z,7.30
2018-09-29T17:17:02.414Z,7.87
2018-09-29T17:19:32.455Z,8.80
2018-09-29T17:22:02.155Z,7.60
2018-09-29T17:24:33.250Z,7.97
2018-09-29T17:27:03.121Z,7.73
2018-09-29T17:29:32.917Z,8.23
2018-09-29T17:32:02.698Z,7.93
2018-09-29T17:34:32.479Z,8.40
2018-09-29T17:37:03.114Z,9.10
2018-09-29T17:39:32.889Z,7.80
2018-09-29T17:42:02.672Z,7.20
2018-09-29T17:44:32.346Z,8.97
2018-09-29T17:47:02.148Z,7.87
2018-09-29T17:49:31.998Z,7.90
2018-09-29T17:52:01.916Z,8.50
2018-09-29T17:54:31.625Z,8.33
2018-09-29T17:57:02.971Z,7.20
2018-09-29T17:59:33.448Z,6.87
2018-09-29T18:02:03.320Z,6.60
2018-09-29T18:04:33.075Z,6.90
2018-09-29T18:07:02.838Z,8.83
2018-09-29T18:09:32.505Z,6.20
2018-09-29T18:12:02.316Z,6.50
2018-09-29T18:14:33.617Z,6.60
2018-09-29T18:17:03.433Z,6.40
2018-09-29T18:19:33.257Z,6.37
2018-09-29T18:22:04.114Z,6.50
2018-09-29T18:24:35.118Z,6.53
2018-09-29T18:27:04.889Z,7.20
2018-09-29T18:29:35.583Z,6.73
2018-09-29T18:32:05.362Z,7.10
2018-09-29T18:34:35.675Z,7.07
2018-09-29T18:39:48.454Z,6.70
2018-09-29T18:42:18.320Z,6.17
2018-09-29T18:44:48.166Z,6.27
2018-09-29T18:47:17.919Z,6.43
2018-09-29T18:49:59.217Z,6.37
2018-09-29T18:52:28.935Z,6.20
2018-09-29T18:54:59.822Z,7.03
2018-09-29T18:57:29.704Z,6.73
2018-09-29T18:59:59.458Z,6.37
2018-09-29T19:02:29.371Z,6.03
2018-09-29T19:04:59.107Z,7.10
2018-09-29T19:07:28.847Z,6.50
2018-09-29T19:09:58.511Z,6.80
2018-09-29T19:12:28.478Z,6.43
2018-09-29T19:14:58.119Z,7.60
2018-09-29T19:17:27.883Z,5.73
2018-09-29T19:19:58.451Z,6.83
2018-09-29T19:22:28.290Z,7.40
2018-09-29T19:24:57.939Z,6.40
2018-09-29T19:27:27.810Z,6.53
2018-09-29T19:29:57.559Z,7.07
2018-09-29T19:32:27.297Z,6.50
2018-09-29T19:34:57.079Z,6.60
2018-09-29T19:37:28.499Z,7.03
2018-09-29T19:39:59.294Z,6.57
2018-09-29T19:42:29.020Z,6.33
2018-09-29T19:44:58.898Z,6.97
2018-09-29T19:47:29.689Z,5.90
2018-09-29T19:49:59.440Z,5.77
2018-09-29T19:52:29.301Z,7.30
2018-09-29T19:54:59.034Z,8.03
2018-09-29T19:57:28.858Z,7.13
2018-09-29T19:59:59.668Z,6.43
2018-09-29T20:02:29.578Z,8.97
2018-09-29T20:04:59.325Z,6.73
2018-09-29T20:07:29.068Z,6.17
2018-09-29T20:09:58.790Z,7.93
2018-09-29T20:12:28.723Z,6.70
2018-09-29T20:14:58.493Z,7.70
2018-09-29T20:17:28.272Z,8.30
2018-09-29T20:19:58.124Z,8.00
2018-09-29T20:22:28.073Z,8.23
2018-09-29T20:24:59.244Z,8.73
2018-09-29T20:27:29.064Z,7.07
2018-09-29T20:29:58.809Z,7.57
2018-09-29T20:32:28.511Z,6.77
2018-09-29T20:34:58.400Z,8.20
2018-09-29T20:37:28.413Z,7.63
2018-09-29T20:39:58.266Z,7.13
2018-09-29T20:42:28.084Z,6.90
2018-09-29T20:44:57.856Z,8.13
2018-09-29T20:47:27.521Z,7.87
2018-09-29T20:49:59.046Z,7.37
2018-09-29T20:52:28.977Z,7.90
2018-09-29T20:54:59.143Z,7.30
2018-09-29T20:57:29.084Z,7.80
2018-09-29T20:59:58.924Z,6.83
2018-09-29T21:02:28.698Z,7.40
2018-09-29T21:04:58.453Z,6.80
2018-09-29T21:07:28.345Z,7.00
2018-09-29T21:09:58.058Z,6.50
2018-09-29T21:12:27.820Z,7.20
2018-09-29T21:14:57.576Z,7.30
2018-09-29T21:17:27.334Z,6.30
2018-09-29T21:19:56.989Z,8.43
2018-09-29T21:22:26.747Z,8.03
2018-09-29T21:24:56.444Z,7.77
2018-09-29T21:27:26.181Z,6.97
2018-09-29T21:29:55.917Z,9.27
2018-09-29T21:32:25.680Z,7.70
2018-09-29T21:34:55.442Z,7.47
2018-09-29T21:37:25.201Z,8.97
2018-09-29T21:39:54.954Z,8.97
2018-09-29T21:42:24.884Z,9.53
2018-09-29T21:44:54.704Z,8.90
2018-09-29T21:47:24.493Z,9.13
2018-09-29T21:49:54.205Z,8.53
2018-09-29T21:52:24.062Z,9.07
2018-09-29T21:54:53.803Z,8.87
2018-09-29T21:57:23.528Z,9.40
2018-09-29T21:59:53.577Z,7.90
2018-09-29T22:02:23.572Z,8.63
2018-09-29T22:04:53.326Z,9.33
2018-09-29T22:07:23.017Z,9.50
2018-09-29T22:09:52.776Z,8.50
2018-09-29T22:12:22.495Z,8.10
2018-09-29T22:14:53.316Z,7.50
2018-09-29T22:17:23.227Z,7.83
2018-09-29T22:19:52.861Z,8.20
2018-09-29T22:22:22.667Z,8.93
2018-09-29T22:24:52.426Z,7.50
2018-09-29T22:27:23.397Z,8.90
2018-09-29T22:29:53.171Z,8.23
2018-09-29T22:32:22.921Z,8.70
2018-09-29T22:34:52.625Z,9.30
2018-09-29T22:37:22.375Z,9.13
2018-09-29T22:39:52.138Z,9.97
2018-09-29T22:42:21.835Z,8.77
2018-09-29T22:44:51.556Z,8.17
2018-09-29T22:47:21.835Z,9.47
2018-09-29T22:49:51.533Z,8.23
2018-09-29T22:52:21.211Z,8.37
2018-09-29T22:54:50.864Z,8.50
2018-09-29T22:57:20.612Z,7.80
2018-09-29T22:59:50.334Z,8.70
2018-09-29T23:02:20.053Z,8.60
2018-09-29T23:04:49.720Z,7.93
2018-09-29T23:07:19.428Z,8.07
2018-09-29T23:09:49.432Z,6.90
2018-09-29T23:12:19.205Z,6.33
2018-09-29T23:14:48.874Z,6.90
2018-09-29T23:17:18.777Z,6.03
2018-09-29T23:19:50.018Z,6.37
2018-09-29T23:22:20.246Z,5.90
2018-09-29T23:24:49.885Z,5.97
2018-09-29T23:27:19.617Z,5.70
2018-09-29T23:29:49.276Z,5.27
2018-09-29T23:32:21.665Z,5.67
2018-09-29T23:34:51.353Z,6.40
2018-09-29T23:37:20.986Z,5.10
2018-09-29T23:39:50.706Z,5.43
2018-09-29T23:42:20.445Z,5.83
2018-09-29T23:44:50.253Z,5.03
2018-09-29T23:47:20.036Z,5.27
2018-09-29T23:49:49.780Z,4.90
2018-09-29T23:52:19.545Z,4.90
2018-09-29T23:54:49.248Z,4.50
2018-09-29T23:57:18.907Z,5.03
2018-09-29T23:59:48.571Z,4.20
